Time;durP1;ratioP1;P1;durP2;ratioP2;P2;SDS_P1;SDS_P2;PMS_P1;PMS_P2;Temp;Humidity;BMP_temperature;BMP_pressure;BME280_temperature;BME280_humidity;BME280_pressure;Samples;Min_cycle;Max_cycle;Signal;HPM_P1;HPM_P2
2022/07/13 00:01:18;;;;;;;0.10;0.10;;;;;;;;;;15333531;19;20058;-65
2022/07/13 00:06:19;;;;;;;0.10;0.10;;;;;;;;;;15341990;19;20013;-66
2022/07/13 00:11:20;;;;;;;0.10;0.10;;;;;;;;;;15342823;19;20017;-67
2022/07/13 00:16:23;;;;;;;0.10;0.10;;;;;;;;;;15341611;19;20026;-67
2022/07/13 00:21:24;;;;;;;0.10;0.10;;;;;;;;;;15339147;19;20011;-66
2022/07/13 00:26:26;;;;;;;0.10;0.10;;;;;;;;;;15339632;19;20018;-66
2022/07/13 00:31:28;;;;;;;0.10;0.10;;;;;;;;;;15337276;19;20039;-66
2022/07/13 00:36:29;;;;;;;0.10;0.10;;;;;;;;;;15339830;19;20010;-66
2022/07/13 00:41:30;;;;;;;0.10;0.10;;;;;;;;;;15344240;19;20030;-67
2022/07/13 00:46:32;;;;;;;0.10;0.10;;;;;;;;;;15352863;19;20235;-66
2022/07/13 00:51:34;;;;;;;0.10;0.10;;;;;;;;;;15353278;19;20231;-66
2022/07/13 00:56:35;;;;;;;0.10;0.10;;;;;;;;;;15351886;19;20015;-66
2022/07/13 01:01:37;;;;;;;0.20;0.20;;;;;;;;;;15350558;19;20011;-65
2022/07/13 01:06:39;;;;;;;0.10;0.10;;;;;;;;;;15351599;19;20010;-66
2022/07/13 01:11:40;;;;;;;0.20;0.20;;;;;;;;;;15351098;19;20011;-66
2022/07/13 01:16:43;;;;;;;0.10;0.10;;;;;;;;;;15351288;19;20029;-65
2022/07/13 01:21:45;;;;;;;0.10;0.10;;;;;;;;;;15347899;19;20014;-66
2022/07/13 01:26:48;;;;;;;0.10;0.10;;;;;;;;;;15350257;19;20010;-65
2022/07/13 01:31:50;;;;;;;0.10;0.10;;;;;;;;;;15344524;19;20126;-66
2022/07/13 01:36:52;;;;;;;0.20;0.20;;;;;;;;;;15344139;19;20021;-65
2022/07/13 01:41:53;;;;;;;0.17;0.17;;;;;;;;;;15341722;19;20230;-65
2022/07/13 01:46:54;;;;;;;0.10;0.10;;;;;;;;;;15343012;19;20015;-65
2022/07/13 01:51:55;;;;;;;0.20;0.20;;;;;;;;;;15341424;19;20013;-65
2022/07/13 01:56:56;;;;;;;0.20;0.20;;;;;;;;;;15341461;19;20003;-66
2022/07/13 02:01:58;;;;;;;0.10;0.10;;;;;;;;;;15339777;19;20014;-66
2022/07/13 02:06:59;;;;;;;0.10;0.10;;;;;;;;;;15340551;19;20007;-66
2022/07/13 02:12:00;;;;;;;0.10;0.10;;;;;;;;;;15340960;19;20002;-65
2022/07/13 02:17:01;;;;;;;0.20;0.20;;;;;;;;;;15341158;19;20002;-66
2022/07/13 02:22:02;;;;;;;0.10;0.10;;;;;;;;;;15347048;19;20010;-66
2022/07/13 02:27:04;;;;;;;0.10;0.10;;;;;;;;;;15349651;19;20018;-66
2022/07/13 02:32:06;;;;;;;0.10;0.10;;;;;;;;;;15345220;19;20010;-66
2022/07/13 02:37:07;;;;;;;0.10;0.10;;;;;;;;;;15345978;19;20025;-66
2022/07/13 02:42:08;;;;;;;0.20;0.20;;;;;;;;;;15344568;19;20017;-66
2022/07/13 02:47:09;;;;;;;0.10;0.10;;;;;;;;;;15347132;19;20025;-66
2022/07/13 02:52:11;;;;;;;0.20;0.20;;;;;;;;;;15346423;19;20010;-66
2022/07/13 02:57:12;;;;;;;0.30;0.30;;;;;;;;;;15345254;19;20017;-66
2022/07/13 03:02:14;;;;;;;0.57;0.57;;;;;;;;;;15344005;19;20014;-66
2022/07/13 03:07:15;;;;;;;0.70;0.70;;;;;;;;;;15342396;19;20115;-66
2022/07/13 03:12:16;;;;;;;0.80;0.80;;;;;;;;;;15344802;19;20011;-67
2022/07/13 03:17:18;;;;;;;1.00;1.00;;;;;;;;;;15344587;19;20011;-66
2022/07/13 03:22:19;;;;;;;0.20;0.20;;;;;;;;;;15341585;19;20029;-67
2022/07/13 03:27:20;;;;;;;1.10;1.10;;;;;;;;;;15344031;19;20017;-66
2022/07/13 03:32:22;;;;;;;0.85;0.85;;;;;;;;;;15339840;19;20007;-65
2022/07/13 03:37:23;;;;;;;0.50;0.50;;;;;;;;;;15342654;19;20010;-64
2022/07/13 03:42:24;;;;;;;0.40;0.40;;;;;;;;;;15331767;19;20002;-66
2022/07/13 03:47:25;;;;;;;0.30;0.30;;;;;;;;;;15338786;19;20231;-65
2022/07/13 03:52:27;;;;;;;0.30;0.30;;;;;;;;;;15338640;19;20014;-66
2022/07/13 03:57:28;;;;;;;0.30;0.30;;;;;;;;;;15334795;19;20215;-66
2022/07/13 04:02:29;;;;;;;0.30;0.30;;;;;;;;;;15336007;19;20011;-67
2022/07/13 04:07:30;;;;;;;0.20;0.20;;;;;;;;;;15334161;19;20021;-68
2022/07/13 04:12:31;;;;;;;0.10;0.10;;;;;;;;;;15334292;19;20023;-67
2022/07/13 04:17:33;;;;;;;0.00;0.00;;;;;;;;;;15344401;19;20034;-68
2022/07/13 04:22:35;;;;;;;0.00;0.00;;;;;;;;;;15345589;19;20014;-67
2022/07/13 04:27:36;;;;;;;0.00;0.00;;;;;;;;;;15348327;19;20022;-67
2022/07/13 04:32:38;;;;;;;0.00;0.00;;;;;;;;;;15342774;19;20011;-67
2022/07/13 04:37:39;;;;;;;0.00;0.00;;;;;;;;;;15347315;19;20019;-67
2022/07/13 04:42:40;;;;;;;0.00;0.00;;;;;;;;;;15343148;19;20010;-67
2022/07/13 04:47:41;;;;;;;0.00;0.00;;;;;;;;;;15346798;19;20010;-67
2022/07/13 04:52:42;;;;;;;0.00;0.00;;;;;;;;;;15345722;19;20002;-68
2022/07/13 04:57:44;;;;;;;0.00;0.00;;;;;;;;;;15345262;19;20044;-68
2022/07/13 05:02:46;;;;;;;0.00;0.00;;;;;;;;;;15346206;19;20011;-68
2022/07/13 05:07:47;;;;;;;0.00;0.00;;;;;;;;;;15348985;19;20021;-69
2022/07/13 05:12:48;;;;;;;0.00;0.00;;;;;;;;;;15338609;19;20011;-68
2022/07/13 05:17:50;;;;;;;0.00;0.00;;;;;;;;;;15349212;19;20037;-67
2022/07/13 05:22:51;;;;;;;0.00;0.00;;;;;;;;;;15340844;19;20010;-68
2022/07/13 05:27:52;;;;;;;0.00;0.00;;;;;;;;;;15346369;19;20017;-68
2022/07/13 05:32:54;;;;;;;0.00;0.00;;;;;;;;;;15341481;19;20115;-68
2022/07/13 05:37:55;;;;;;;0.10;0.10;;;;;;;;;;15346764;19;20054;-68
2022/07/13 05:42:56;;;;;;;0.10;0.10;;;;;;;;;;15341249;19;20123;-68
2022/07/13 05:47:58;;;;;;;0.20;0.20;;;;;;;;;;15345429;19;20014;-68
2022/07/13 05:52:59;;;;;;;0.30;0.30;;;;;;;;;;15346837;19;20026;-69
2022/07/13 05:58:01;;;;;;;0.40;0.40;;;;;;;;;;15345610;19;20017;-69
2022/07/13 06:03:02;;;;;;;0.50;0.50;;;;;;;;;;15340998;19;20127;-69
2022/07/13 06:08:03;;;;;;;0.70;0.70;;;;;;;;;;15342492;19;20014;-67
2022/07/13 06:13:04;;;;;;;0.90;0.90;;;;;;;;;;15338497;19;20017;-66
2022/07/13 06:18:06;;;;;;;1.20;1.20;;;;;;;;;;15342083;19;20010;-68
2022/07/13 06:23:10;;;;;;;1.40;1.40;;;;;;;;;;15340444;19;20015;-69
2022/07/13 06:28:12;;;;;;;1.90;1.90;;;;;;;;;;15341006;19;20010;-70
2022/07/13 06:33:14;;;;;;;2.60;2.60;;;;;;;;;;15335825;19;20066;-65
2022/07/13 06:38:16;;;;;;;3.65;3.55;;;;;;;;;;15339362;19;20037;-69
2022/07/13 06:43:17;;;;;;;3.63;3.53;;;;;;;;;;15336088;19;20015;-70
2022/07/13 06:48:18;;;;;;;3.40;3.30;;;;;;;;;;15344940;19;20044;-69
2022/07/13 06:53:19;;;;;;;4.30;4.20;;;;;;;;;;15336207;19;20018;-65
2022/07/13 06:58:21;;;;;;;5.93;5.72;;;;;;;;;;15340996;19;20013;-69
2022/07/13 07:03:22;;;;;;;8.40;8.10;;;;;;;;;;15339244;19;20172;-68
2022/07/13 07:08:23;;;;;;;10.60;10.20;;;;;;;;;;15338318;19;20017;-68
2022/07/13 07:13:24;;;;;;;12.65;12.07;;;;;;;;;;15334459;19;20241;-67
2022/07/13 07:18:27;;;;;;;14.90;14.20;;;;;;;;;;15342759;19;20015;-70
2022/07/13 07:23:28;;;;;;;16.60;15.80;;;;;;;;;;15338635;19;20011;-68
2022/07/13 07:28:29;;;;;;;17.42;16.63;;;;;;;;;;15341430;19;20427;-70
2022/07/13 07:33:31;;;;;;;20.08;19.08;;;;;;;;;;15333117;19;20010;-66
2022/07/13 07:38:33;;;;;;;24.52;23.23;;;;;;;;;;15340554;19;20127;-68
2022/07/13 07:43:34;;;;;;;27.70;26.20;;;;;;;;;;15335846;19;20022;-66
2022/07/13 07:48:35;;;;;;;33.00;31.20;;;;;;;;;;15339296;19;20048;-69
2022/07/13 07:53:37;;;;;;;37.20;35.10;;;;;;;;;;15346029;19;20066;-68
2022/07/13 07:58:39;;;;;;;42.65;40.15;;;;;;;;;;15351783;19;20015;-71
2022/07/13 08:03:40;;;;;;;49.25;46.35;;;;;;;;;;15356193;19;20019;-70
2022/07/13 08:08:42;;;;;;;63.08;59.08;;;;;;;;;;15354200;19;20007;-68
2022/07/13 08:13:44;;;;;;;46.30;43.60;;;;;;;;;;15351177;19;20070;-70
2022/07/13 08:18:46;;;;;;;5.93;5.72;;;;;;;;;;15354493;19;20017;-68
2022/07/13 08:23:54;;;;;;;0.50;0.50;;;;;;;;;;15356301;19;20014;-67
2022/07/13 08:28:58;;;;;;;0.10;0.10;;;;;;;;;;15353836;19;20249;-68
2022/07/13 08:39:20;;;;;;;0.00;0.00;;;;;;;;;;15354541;19;20066;-68
2022/07/13 08:44:21;;;;;;;0.00;0.00;;;;;;;;;;15355797;19;20021;-67
2022/07/13 08:49:25;;;;;;;0.00;0.00;;;;;;;;;;15352431;19;20211;-67
2022/07/13 08:54:27;;;;;;;0.00;0.00;;;;;;;;;;15347945;19;20222;-68
2022/07/13 08:59:28;;;;;;;0.00;0.00;;;;;;;;;;15351527;19;20219;-66
2022/07/13 09:04:29;;;;;;;0.00;0.00;;;;;;;;;;15352626;19;20050;-70
2022/07/13 09:09:38;;;;;;;0.00;0.00;;;;;;;;;;15351033;19;20007;-67
2022/07/13 09:14:39;;;;;;;0.00;0.00;;;;;;;;;;15349087;19;20018;-66
2022/07/13 09:19:42;;;;;;;0.00;0.00;;;;;;;;;;15351869;19;20168;-69
2022/07/13 09:24:45;;;;;;;0.00;0.00;;;;;;;;;;15351884;19;20014;-68
2022/07/13 09:29:46;;;;;;;0.00;0.00;;;;;;;;;;15342493;19;20221;-68
2022/07/13 09:34:51;;;;;;;0.00;0.00;;;;;;;;;;15342390;19;20002;-70
2022/07/13 09:39:56;;;;;;;0.00;0.00;;;;;;;;;;15344535;19;20018;-66
2022/07/13 09:50:43;;;;;;;0.00;0.00;;;;;;;;;;15348619;19;20015;-68
2022/07/13 09:55:47;;;;;;;0.00;0.00;;;;;;;;;;15341881;19;20145;-66
2022/07/13 10:00:49;;;;;;;0.00;0.00;;;;;;;;;;15348841;19;20032;-66
2022/07/13 10:05:52;;;;;;;0.00;0.00;;;;;;;;;;15342427;19;20015;-66
2022/07/13 10:10:53;;;;;;;0.00;0.00;;;;;;;;;;15340844;19;20019;-68
2022/07/13 10:15:55;;;;;;;0.00;0.00;;;;;;;;;;15344953;19;20038;-69
2022/07/13 10:21:17;;;;;;;0.00;0.00;;;;;;;;;;15348919;19;20006;-66
2022/07/13 10:26:28;;;;;;;0.00;0.00;;;;;;;;;;15340090;19;20010;-66
2022/07/13 10:31:33;;;;;;;0.00;0.00;;;;;;;;;;15345326;19;20227;-65
2022/07/13 10:36:56;;;;;;;0.00;0.00;;;;;;;;;;15345908;19;20030;-69
2022/07/13 10:42:07;;;;;;;0.00;0.00;;;;;;;;;;15346116;19;20114;-68
2022/07/13 10:47:19;;;;;;;0.00;0.00;;;;;;;;;;15345765;19;20534;-64
2022/07/13 10:52:26;;;;;;;0.00;0.00;;;;;;;;;;15344742;19;20010;-68
2022/07/13 10:57:28;;;;;;;0.00;0.00;;;;;;;;;;15345841;19;20011;-67
2022/07/13 11:02:43;;;;;;;0.00;0.00;;;;;;;;;;15348449;19;20010;-66
2022/07/13 11:07:47;;;;;;;0.00;0.00;;;;;;;;;;15344924;19;20242;-68
2022/07/13 11:13:02;;;;;;;0.00;0.00;;;;;;;;;;15344008;19;20033;-65
2022/07/13 11:18:25;;;;;;;0.00;0.00;;;;;;;;;;15346124;19;20014;-65
2022/07/13 11:29:30;;;;;;;;;;;;;;;;;;15340675;19;20014;-67
2022/07/13 11:34:32;;;;;;;0.00;0.00;;;;;;;;;;15336277;19;19926;-67
2022/07/13 11:39:35;;;;;;;0.00;0.00;;;;;;;;;;15338567;19;20011;-69
2022/07/13 11:44:36;;;;;;;0.00;0.00;;;;;;;;;;15335882;19;20007;-66
2022/07/13 11:49:53;;;;;;;0.00;0.00;;;;;;;;;;15345670;19;20027;-69
2022/07/13 11:55:05;;;;;;;0.00;0.00;;;;;;;;;;15339726;19;20231;-65
2022/07/13 12:00:08;;;;;;;0.00;0.00;;;;;;;;;;15343448;19;20010;-70
2022/07/13 12:05:10;;;;;;;0.00;0.00;;;;;;;;;;15335798;19;20010;-69
2022/07/13 12:10:12;;;;;;;0.00;0.00;;;;;;;;;;15334776;19;20122;-68
2022/07/13 12:15:13;;;;;;;0.00;0.00;;;;;;;;;;15337672;19;20026;-66
2022/07/13 12:20:17;;;;;;;0.00;0.00;;;;;;;;;;15333290;19;20030;-67
2022/07/13 12:25:26;;;;;;;0.00;0.00;;;;;;;;;;15332863;19;20007;-69
2022/07/13 12:30:33;;;;;;;0.00;0.00;;;;;;;;;;15335303;19;20007;-67
2022/07/13 12:35:37;;;;;;;0.00;0.00;;;;;;;;;;15337653;19;20025;-67
2022/07/13 12:40:40;;;;;;;0.00;0.00;;;;;;;;;;15351020;19;20086;-69
2022/07/13 12:45:45;;;;;;;0.00;0.00;;;;;;;;;;15345940;19;20321;-65
2022/07/13 12:51:07;;;;;;;0.00;0.00;;;;;;;;;;15351324;19;20018;-67
2022/07/13 12:56:09;;;;;;;0.00;0.00;;;;;;;;;;15347261;19;20006;-68
2022/07/13 13:01:10;;;;;;;0.00;0.00;;;;;;;;;;15350509;19;20010;-67
2022/07/13 13:06:11;;;;;;;0.00;0.00;;;;;;;;;;15352824;19;20338;-68
2022/07/13 13:11:12;;;;;;;;;;;;;;;;;;15350114;19;20026;-68
2022/07/13 13:16:13;;;;;;;0.00;0.00;;;;;;;;;;15353575;19;19918;-66
2022/07/13 13:21:15;;;;;;;0.00;0.00;;;;;;;;;;15349635;19;20011;-65
2022/07/13 13:26:16;;;;;;;;;;;;;;;;;;15347688;19;20122;-68
2022/07/13 13:31:18;;;;;;;0.00;0.00;;;;;;;;;;15347862;19;19922;-65
2022/07/13 13:36:19;;;;;;;0.00;0.00;;;;;;;;;;15345464;19;20018;-67
2022/07/13 13:41:20;;;;;;;0.00;0.00;;;;;;;;;;15352258;19;20010;-71
2022/07/13 13:46:21;;;;;;;0.00;0.00;;;;;;;;;;15345153;19;20042;-68
2022/07/13 13:51:23;;;;;;;0.00;0.00;;;;;;;;;;15342943;19;20223;-67
2022/07/13 13:56:24;;;;;;;0.00;0.00;;;;;;;;;;15344520;19;20011;-69
2022/07/13 14:01:25;;;;;;;0.00;0.00;;;;;;;;;;15347032;19;20006;-67
2022/07/13 14:06:28;;;;;;;0.00;0.00;;;;;;;;;;15345608;19;20014;-69
2022/07/13 14:11:29;;;;;;;0.00;0.00;;;;;;;;;;15338055;19;20058;-68
2022/07/13 14:16:30;;;;;;;;;;;;;;;;;;15349910;19;20021;-65
2022/07/13 14:21:32;;;;;;;0.00;0.00;;;;;;;;;;15345086;19;19937;-69
2022/07/13 14:26:33;;;;;;;;;;;;;;;;;;15340798;19;20007;-68
2022/07/13 14:31:34;;;;;;;0.00;0.00;;;;;;;;;;15339146;19;20035;-67
2022/07/13 14:36:36;;;;;;;0.00;0.00;;;;;;;;;;15344568;19;20026;-67
2022/07/13 14:41:38;;;;;;;0.00;0.00;;;;;;;;;;15344181;19;20223;-66
2022/07/13 14:46:39;;;;;;;0.00;0.00;;;;;;;;;;15338563;19;20015;-67
2022/07/13 14:51:41;;;;;;;0.00;0.00;;;;;;;;;;15342874;19;20250;-66
2022/07/13 14:56:42;;;;;;;0.00;0.00;;;;;;;;;;15344004;19;20018;-67
2022/07/13 15:01:44;;;;;;;0.00;0.00;;;;;;;;;;15343056;19;20022;-67
2022/07/13 15:06:47;;;;;;;;;;;;;;;;;;15344445;19;20006;-67
2022/07/13 15:11:48;;;;;;;0.00;0.00;;;;;;;;;;15341039;19;19941;-66
2022/07/13 15:16:49;;;;;;;0.00;0.00;;;;;;;;;;15341824;19;20007;-66
2022/07/13 15:21:51;;;;;;;0.00;0.00;;;;;;;;;;15340244;19;20018;-65
2022/07/13 15:26:52;;;;;;;0.00;0.00;;;;;;;;;;15341388;19;20231;-67
2022/07/13 15:31:56;;;;;;;0.00;0.00;;;;;;;;;;15334393;19;20219;-65
2022/07/13 15:36:58;;;;;;;0.00;0.00;;;;;;;;;;15338015;19;20025;-66
2022/07/13 15:41:59;;;;;;;;;;;;;;;;;;15337394;19;20006;-68
2022/07/13 15:47:00;;;;;;;0.00;0.00;;;;;;;;;;15339294;19;19926;-67
2022/07/13 15:52:02;;;;;;;0.00;0.00;;;;;;;;;;15336661;19;20014;-68
2022/07/13 15:57:03;;;;;;;0.00;0.00;;;;;;;;;;15340963;19;20010;-67
2022/07/13 16:02:04;;;;;;;0.00;0.00;;;;;;;;;;15339028;19;20014;-68
2022/07/13 16:07:06;;;;;;;0.00;0.00;;;;;;;;;;15343496;19;20007;-67
2022/07/13 16:12:07;;;;;;;0.00;0.00;;;;;;;;;;15351504;19;20267;-66
2022/07/13 16:17:08;;;;;;;0.00;0.00;;;;;;;;;;15357480;19;20018;-67
2022/07/13 16:22:10;;;;;;;0.00;0.00;;;;;;;;;;15355844;19;20006;-67
2022/07/13 16:27:11;;;;;;;0.00;0.00;;;;;;;;;;15357369;19;20006;-67
2022/07/13 16:32:13;;;;;;;0.00;0.00;;;;;;;;;;15351837;19;20007;-67
2022/07/13 16:37:14;;;;;;;0.00;0.00;;;;;;;;;;15354065;19;20023;-67
2022/07/13 16:42:16;;;;;;;0.00;0.00;;;;;;;;;;15352121;19;20017;-67
2022/07/13 16:47:17;;;;;;;0.00;0.00;;;;;;;;;;15349651;19;20011;-66
2022/07/13 16:52:20;;;;;;;0.00;0.00;;;;;;;;;;15353756;19;20007;-65
2022/07/13 16:57:22;;;;;;;0.00;0.00;;;;;;;;;;15352203;19;20007;-69
2022/07/13 17:02:23;;;;;;;0.00;0.00;;;;;;;;;;15349429;19;20074;-68
2022/07/13 17:07:25;;;;;;;0.00;0.00;;;;;;;;;;15353976;19;20017;-66
2022/07/13 17:12:27;;;;;;;0.00;0.00;;;;;;;;;;15352061;19;19995;-65
2022/07/13 17:17:28;;;;;;;0.00;0.00;;;;;;;;;;15349541;19;20018;-69
2022/07/13 17:22:29;;;;;;;0.00;0.00;;;;;;;;;;15348937;19;20114;-66
2022/07/13 17:27:31;;;;;;;0.00;0.00;;;;;;;;;;15350862;19;20014;-66
2022/07/13 17:32:32;;;;;;;0.00;0.00;;;;;;;;;;15345268;19;20021;-68
2022/07/13 17:37:34;;;;;;;0.00;0.00;;;;;;;;;;15350009;19;20011;-67
2022/07/13 17:42:35;;;;;;;0.00;0.00;;;;;;;;;;15343728;19;20016;-66
2022/07/13 17:47:37;;;;;;;0.00;0.00;;;;;;;;;;15351408;19;20022;-67
2022/07/13 17:52:38;;;;;;;0.00;0.00;;;;;;;;;;15351020;19;20022;-67
2022/07/13 17:57:39;;;;;;;0.00;0.00;;;;;;;;;;15350115;19;20021;-66
2022/07/13 18:02:40;;;;;;;0.00;0.00;;;;;;;;;;15343474;19;20080;-67
2022/07/13 18:07:42;;;;;;;0.00;0.00;;;;;;;;;;15350671;19;20036;-68
2022/07/13 18:12:43;;;;;;;0.00;0.00;;;;;;;;;;15343765;19;20021;-68
2022/07/13 18:17:44;;;;;;;0.00;0.00;;;;;;;;;;15349110;19;20247;-68
2022/07/13 18:22:46;;;;;;;0.00;0.00;;;;;;;;;;15344389;19;20226;-67
2022/07/13 18:27:47;;;;;;;0.00;0.00;;;;;;;;;;15346631;19;19998;-69
2022/07/13 18:32:50;;;;;;;0.00;0.00;;;;;;;;;;15339617;19;20050;-67
2022/07/13 18:37:52;;;;;;;;;;;;;;;;;;15345958;19;20006;-66
2022/07/13 18:42:54;;;;;;;0.00;0.00;;;;;;;;;;15341323;19;19921;-66
2022/07/13 18:47:56;;;;;;;0.00;0.00;;;;;;;;;;15343320;19;20022;-67
2022/07/13 18:52:57;;;;;;;0.00;0.00;;;;;;;;;;15344309;19;20237;-68
2022/07/13 18:57:58;;;;;;;0.00;0.00;;;;;;;;;;15342960;19;20018;-66
2022/07/13 19:02:59;;;;;;;0.00;0.00;;;;;;;;;;15342991;19;20011;-66
2022/07/13 19:08:01;;;;;;;0.00;0.00;;;;;;;;;;15347547;19;20007;-67
2022/07/13 19:13:02;;;;;;;0.00;0.00;;;;;;;;;;15341492;19;20022;-67
2022/07/13 19:18:03;;;;;;;0.00;0.00;;;;;;;;;;15343251;19;20014;-66
2022/07/13 19:23:08;;;;;;;0.00;0.00;;;;;;;;;;15339899;19;20284;-67
2022/07/13 19:28:12;;;;;;;0.00;0.00;;;;;;;;;;15343098;19;20023;-66
2022/07/13 19:33:13;;;;;;;0.00;0.00;;;;;;;;;;15338057;19;20036;-67
2022/07/13 19:38:14;;;;;;;0.00;0.00;;;;;;;;;;15342742;19;20013;-66
2022/07/13 19:43:16;;;;;;;0.00;0.00;;;;;;;;;;15339953;19;20219;-66
2022/07/13 19:48:17;;;;;;;0.00;0.00;;;;;;;;;;15342376;19;20029;-66
2022/07/13 19:53:18;;;;;;;0.00;0.00;;;;;;;;;;15338737;19;20018;-65
2022/07/13 19:58:20;;;;;;;0.00;0.00;;;;;;;;;;15335592;19;20014;-66
2022/07/13 20:03:21;;;;;;;0.00;0.00;;;;;;;;;;15337430;19;20314;-66
2022/07/13 20:08:23;;;;;;;0.00;0.00;;;;;;;;;;15333671;19;20009;-66
2022/07/13 20:13:25;;;;;;;0.00;0.00;;;;;;;;;;15341200;19;20014;-67
2022/07/13 20:18:26;;;;;;;0.00;0.00;;;;;;;;;;15335425;19;20010;-65
2022/07/13 20:23:28;;;;;;;0.00;0.00;;;;;;;;;;15330494;19;20006;-66
2022/07/13 20:28:29;;;;;;;0.00;0.00;;;;;;;;;;15336987;19;20219;-65
2022/07/13 20:33:31;;;;;;;0.00;0.00;;;;;;;;;;15329327;19;20011;-66
2022/07/13 20:38:32;;;;;;;0.00;0.00;;;;;;;;;;15332719;19;20070;-65
2022/07/13 20:43:33;;;;;;;0.00;0.00;;;;;;;;;;15336738;19;20018;-65
2022/07/13 20:48:34;;;;;;;0.00;0.00;;;;;;;;;;15332004;19;20002;-67
2022/07/13 20:53:36;;;;;;;0.00;0.00;;;;;;;;;;15338215;19;20014;-66
2022/07/13 20:58:37;;;;;;;0.00;0.00;;;;;;;;;;15340913;19;20018;-67
2022/07/13 21:03:38;;;;;;;0.00;0.00;;;;;;;;;;15343202;19;20014;-64
2022/07/13 21:08:39;;;;;;;0.00;0.00;;;;;;;;;;15345647;19;20014;-66
2022/07/13 21:13:40;;;;;;;0.00;0.00;;;;;;;;;;15354523;19;20014;-65
2022/07/13 21:18:42;;;;;;;0.00;0.00;;;;;;;;;;15345343;19;20003;-67
2022/07/13 21:23:44;;;;;;;0.00;0.00;;;;;;;;;;15343348;19;20028;-68
2022/07/13 21:28:45;;;;;;;0.00;0.00;;;;;;;;;;15345358;19;20006;-68
2022/07/13 21:33:47;;;;;;;0.00;0.00;;;;;;;;;;15345637;19;20010;-66
2022/07/13 21:38:48;;;;;;;0.10;0.10;;;;;;;;;;15350961;19;20014;-67
2022/07/13 21:43:49;;;;;;;0.00;0.00;;;;;;;;;;15346860;19;20015;-67
2022/07/13 21:48:51;;;;;;;0.00;0.00;;;;;;;;;;15349624;19;20021;-68
2022/07/13 21:53:52;;;;;;;0.00;0.00;;;;;;;;;;15349423;19;20011;-66
2022/07/13 21:58:53;;;;;;;0.10;0.10;;;;;;;;;;15347289;19;20010;-67
2022/07/13 22:03:55;;;;;;;0.00;0.00;;;;;;;;;;15343671;19;20014;-67
2022/07/13 22:08:56;;;;;;;0.00;0.00;;;;;;;;;;15339063;19;20025;-66
2022/07/13 22:14:34;;;;;;;0.00;0.00;;;;;;;;;;15345630;19;20029;-66
2022/07/13 22:20:14;;;;;;;0.00;0.00;;;;;;;;;;15346583;19;20190;-64
2022/07/13 22:25:53;;;;;;;0.10;0.10;;;;;;;;;;15343138;19;20185;-64
2022/07/13 22:31:32;;;;;;;0.08;0.08;;;;;;;;;;15347630;19;20152;-67
2022/07/13 22:37:11;;;;;;;0.00;0.00;;;;;;;;;;15340413;19;20319;-66
2022/07/13 22:42:51;;;;;;;0.00;0.00;;;;;;;;;;15340105;19;20007;-67
2022/07/13 22:48:29;;;;;;;0.10;0.10;;;;;;;;;;15339479;19;20018;-65
2022/07/13 22:54:08;;;;;;;0.00;0.00;;;;;;;;;;15341557;19;20014;-64
2022/07/13 22:59:47;;;;;;;0.10;0.10;;;;;;;;;;15341228;19;20011;-67
2022/07/13 23:05:26;;;;;;;0.00;0.00;;;;;;;;;;15338981;19;20011;-65
2022/07/13 23:11:04;;;;;;;0.10;0.10;;;;;;;;;;15341587;19;20054;-66
2022/07/13 23:16:44;;;;;;;0.00;0.00;;;;;;;;;;15342753;19;20249;-65
2022/07/13 23:22:23;;;;;;;0.10;0.10;;;;;;;;;;15342197;19;20130;-64
2022/07/13 23:28:02;;;;;;;0.10;0.10;;;;;;;;;;15344244;19;20010;-65
2022/07/13 23:33:03;;;;;;;0.10;0.10;;;;;;;;;;15340943;19;20002;-65
2022/07/13 23:38:05;;;;;;;0.10;0.10;;;;;;;;;;15340881;19;20010;-66
2022/07/13 23:43:07;;;;;;;0.10;0.10;;;;;;;;;;15341541;19;20235;-65
2022/07/13 23:48:08;;;;;;;0.10;0.10;;;;;;;;;;15344882;19;20014;-65
2022/07/13 23:53:09;;;;;;;0.00;0.00;;;;;;;;;;15341093;19;20006;-65
2022/07/13 23:58:12;;;;;;;0.10;0.10;;;;;;;;;;15339492;19;20015;-64
